Time;durP1;ratioP1;P1;durP2;ratioP2;P2;SDS_P1;SDS_P2;PMS_P1;PMS_P2;Temp;Humidity;BMP_temperature;BMP_pressure;BME280_temperature;BME280_humidity;BME280_pressure;Samples;Min_cycle;Max_cycle;Signal;HPM_P1;HPM_P2
2023/05/23 00:01:02;;;;;;;46.63;22.60;;;14.80;99.90;;;;;;5048626;28;20041;-62
2023/05/23 00:03:30;;;;;;;;;;;14.80;99.90;;;;;;5041497;28;20041;-62
2023/05/23 00:05:56;;;;;;;31.50;20.23;;;14.70;99.90;;;;;;5044172;28;19921;-63
2023/05/23 00:08:21;;;;;;;;;;;14.70;99.90;;;;;;5039980;28;20045;-61
2023/05/23 00:10:47;;;;;;;27.38;18.70;;;14.60;99.90;;;;;;5039553;28;19952;-60
2023/05/23 00:13:13;;;;;;;;;;;14.60;99.90;;;;;;5042081;28;20124;-60
2023/05/23 00:15:42;;;;;;;25.50;15.90;;;14.60;99.90;;;;;;5042050;28;19970;-62
2023/05/23 00:18:09;;;;;;;24.92;15.30;;;14.50;99.90;;;;;;5031237;28;20038;-60
2023/05/23 00:20:36;;;;;;;22.70;16.23;;;14.50;99.90;;;;;;5026033;28;20041;-59
2023/05/23 00:23:02;;;;;;;22.48;14.52;;;14.40;99.90;;;;;;5027016;28;20071;-60
2023/05/23 00:25:32;;;;;;;18.02;12.73;;;14.30;99.90;;;;;;5044025;28;20044;-60
2023/05/23 00:28:02;;;;;;;19.60;12.85;;;14.30;99.90;;;;;;5030617;28;20115;-59
2023/05/23 00:30:30;;;;;;;17.67;13.70;;;14.30;99.90;;;;;;5029345;28;20220;-62
2023/05/23 00:32:55;;;;;;;18.30;13.77;;;14.30;99.90;;;;;;5036885;28;20064;-62
2023/05/23 00:35:22;;;;;;;;;;;14.20;99.90;;;;;;5028630;28;20033;-61
2023/05/23 00:37:49;;;;;;;17.92;13.45;;;14.20;99.90;;;;;;5025385;28;19968;-60
2023/05/23 00:40:14;;;;;;;24.77;14.40;;;14.10;99.90;;;;;;5028184;28;20044;-60
2023/05/23 00:42:40;;;;;;;;;;;14.00;99.90;;;;;;5024492;28;20157;-59
2023/05/23 00:45:06;;;;;;;19.38;12.02;;;14.00;99.90;;;;;;5028116;28;19917;-59
2023/05/23 00:47:32;;;;;;;17.27;12.93;;;14.00;99.90;;;;;;5026383;28;20073;-60
2023/05/23 00:49:58;;;;;;;;;;;13.90;99.90;;;;;;5028293;28;20072;-59
2023/05/23 00:52:24;;;;;;;19.48;10.60;;;13.80;99.90;;;;;;5026979;28;20331;-62
2023/05/23 00:54:49;;;;;;;16.42;12.43;;;13.80;99.90;;;;;;5026079;28;20041;-62
2023/05/23 00:57:15;;;;;;;;;;;13.80;99.90;;;;;;5029163;28;20041;-61
2023/05/23 00:59:42;;;;;;;18.20;12.25;;;13.80;99.90;;;;;;5029495;28;20019;-61
2023/05/23 01:02:08;;;;;;;15.15;11.80;;;13.70;99.90;;;;;;5026531;28;20244;-62
2023/05/23 01:04:34;;;;;;;;;;;13.70;99.90;;;;;;5027916;28;20222;-58
2023/05/23 01:07:04;;;;;;;14.25;10.30;;;13.70;99.90;;;;;;5027058;28;19947;-59
2023/05/23 01:09:30;;;;;;;18.75;11.40;;;13.70;99.90;;;;;;5027096;28;20049;-62
2023/05/23 01:11:56;;;;;;;14.77;9.82;;;13.60;99.90;;;;;;5026272;28;20061;-59
2023/05/23 01:14:25;;;;;;;;;;;13.60;99.90;;;;;;5027343;28;20057;-61
2023/05/23 01:17:08;;;;;;;14.45;10.50;;;13.70;99.90;;;;;;5027808;28;19959;-59
2023/05/23 01:20:09;;;;;;;17.40;9.88;;;13.60;99.90;;;;;;5029267;28;20041;-62
2023/05/23 01:22:55;;;;;;;15.00;10.95;;;13.60;99.90;;;;;;5027300;28;20049;-62
2023/05/23 01:25:24;;;;;;;18.17;11.90;;;13.60;99.90;;;;;;5029829;28;20045;-60
2023/05/23 01:27:57;;;;;;;16.85;10.90;;;13.60;99.90;;;;;;5023338;28;20037;-60
2023/05/23 01:30:25;;;;;;;15.02;11.00;;;13.60;99.90;;;;;;5026245;28;20048;-62
2023/05/23 01:32:54;;;;;;;17.73;10.70;;;13.50;99.90;;;;;;5023710;28;20037;-61
2023/05/23 01:35:26;;;;;;;23.23;12.65;;;13.50;99.90;;;;;;5027814;28;20037;-62
2023/05/23 01:37:53;;;;;;;21.88;12.40;;;13.40;99.90;;;;;;5024453;28;20042;-60
2023/05/23 01:40:18;;;;;;;16.10;10.80;;;13.40;99.90;;;;;;5017159;28;20041;-62
2023/05/23 01:42:44;;;;;;;;;;;13.30;99.90;;;;;;5025813;28;20041;-62
2023/05/23 01:45:11;;;;;;;15.43;10.90;;;13.30;99.90;;;;;;5027529;28;19923;-61
2023/05/23 01:47:38;;;;;;;16.88;12.80;;;13.30;99.90;;;;;;5027245;28;20513;-62
2023/05/23 01:50:05;;;;;;;20.42;12.93;;;13.30;99.90;;;;;;5026423;28;20128;-62
2023/05/23 01:52:31;;;;;;;19.27;12.73;;;13.30;99.90;;;;;;5024893;28;20045;-62
2023/05/23 01:54:58;;;;;;;;;;;13.30;99.90;;;;;;5028610;28;20063;-61
2023/05/23 01:57:25;;;;;;;20.20;12.10;;;13.10;99.90;;;;;;5027104;28;19925;-62
2023/05/23 01:59:51;;;;;;;17.98;11.82;;;13.20;99.90;;;;;;5028536;28;20053;-61
2023/05/23 02:02:16;;;;;;;;;;;13.20;99.90;;;;;;5024467;28;20112;-62
2023/05/23 02:04:42;;;;;;;18.00;11.70;;;13.20;99.90;;;;;;5023916;28;19917;-61
2023/05/23 02:07:07;;;;;;;16.77;11.63;;;13.30;99.90;;;;;;5023077;28;20517;-62
2023/05/23 02:09:33;;;;;;;;;;;13.20;99.90;;;;;;5023981;28;20033;-61
2023/05/23 02:11:58;;;;;;;17.08;11.02;;;13.10;99.90;;;;;;5022966;28;19960;-62
2023/05/23 02:14:25;;;;;;;;;;;13.10;99.90;;;;;;5023485;28;20033;-60
2023/05/23 02:16:51;;;;;;;17.77;9.30;;;13.10;99.90;;;;;;5023674;28;19924;-61
2023/05/23 02:19:17;;;;;;;14.23;10.48;;;13.10;99.90;;;;;;5022443;28;20068;-62
2023/05/23 02:21:42;;;;;;;;;;;13.10;99.90;;;;;;5020934;28;20172;-62
2023/05/23 02:24:08;;;;;;;18.40;10.80;;;13.10;99.90;;;;;;5021410;28;20032;-61
2023/05/23 02:26:33;;;;;;;;;;;13.00;99.90;;;;;;5024956;28;20033;-62
2023/05/23 02:28:59;;;;;;;17.27;11.73;;;13.00;99.90;;;;;;5022129;28;19921;-60
2023/05/23 02:31:25;;;;;;;;;;;13.00;99.90;;;;;;5022655;28;20042;-60
2023/05/23 02:33:51;;;;;;;22.58;14.43;;;12.90;99.90;;;;;;5021036;28;19917;-62
2023/05/23 02:36:16;;;;;;;;;;;12.90;99.90;;;;;;5024655;28;20047;-59
2023/05/23 02:38:42;;;;;;;16.40;12.20;;;12.90;99.90;;;;;;5021575;28;19944;-54
2023/05/23 02:41:08;;;;;;;18.92;13.02;;;12.90;99.90;;;;;;5023550;28;20116;-60
2023/05/23 02:43:33;;;;;;;16.00;12.35;;;12.90;99.90;;;;;;5022207;28;20857;-60
2023/05/23 02:45:59;;;;;;;;;;;12.90;99.90;;;;;;5025592;28;20030;-62
2023/05/23 02:48:25;;;;;;;19.48;12.30;;;12.90;99.90;;;;;;5023728;28;20007;-61
2023/05/23 02:50:50;;;;;;;;;;;12.80;99.90;;;;;;5023665;28;20041;-62
2023/05/23 02:53:17;;;;;;;16.63;12.18;;;12.80;99.90;;;;;;5020712;28;19921;-61
2023/05/23 02:55:42;;;;;;;16.33;12.38;;;12.80;99.90;;;;;;5022530;28;20140;-60
2023/05/23 02:58:08;;;;;;;;;;;12.80;99.90;;;;;;5023709;28;20112;-62
2023/05/23 03:00:34;;;;;;;18.80;11.35;;;12.80;99.90;;;;;;5021667;28;19925;-58
2023/05/23 03:03:00;;;;;;;17.08;12.07;;;12.90;99.90;;;;;;5042612;28;20040;-62
2023/05/23 03:05:26;;;;;;;;;;;12.90;99.90;;;;;;5046551;28;20791;-60
2023/05/23 03:07:53;;;;;;;18.50;12.90;;;12.90;99.90;;;;;;5044720;28;19923;-57
2023/05/23 03:10:19;;;;;;;14.65;11.88;;;12.90;99.90;;;;;;5043798;28;20163;-61
2023/05/23 03:12:46;;;;;;;17.85;11.98;;;12.90;99.90;;;;;;5041097;28;20036;-62
2023/05/23 03:15:11;;;;;;;17.95;12.82;;;12.90;99.90;;;;;;5044073;28;20147;-62
2023/05/23 03:17:37;;;;;;;;;;;12.90;99.90;;;;;;5042776;28;20135;-61
2023/05/23 03:20:03;;;;;;;17.35;10.82;;;12.80;99.90;;;;;;5042469;28;19921;-62
2023/05/23 03:22:29;;;;;;;16.02;9.80;;;12.70;99.90;;;;;;5037756;28;20045;-60
2023/05/23 03:24:55;;;;;;;;;;;12.60;99.90;;;;;;5040937;28;20041;-62
2023/05/23 03:27:20;;;;;;;11.13;8.73;;;12.60;99.90;;;;;;5054083;28;19928;-60
2023/05/23 03:29:47;;;;;;;;;;;12.50;99.90;;;;;;5051639;28;20036;-61
2023/05/23 03:32:13;;;;;;;10.45;7.72;;;12.40;99.90;;;;;;5043770;28;19916;-61
2023/05/23 03:34:38;;;;;;;;;;;12.40;99.90;;;;;;5044389;28;20733;-61
2023/05/23 03:37:04;;;;;;;9.77;6.00;;;12.40;99.90;;;;;;5047759;28;19935;-60
2023/05/23 03:39:30;;;;;;;10.07;5.80;;;12.40;99.90;;;;;;5045531;28;20037;-61
2023/05/23 03:41:55;;;;;;;;;;;12.30;99.90;;;;;;5041198;28;20068;-58
2023/05/23 03:44:21;;;;;;;9.90;5.72;;;12.30;99.90;;;;;;5038055;28;19962;-61
2023/05/23 03:46:47;;;;;;;7.22;5.13;;;12.30;99.90;;;;;;5026483;28;20784;-60
2023/05/23 03:49:13;;;;;;;9.00;4.90;;;12.40;99.90;;;;;;5038795;28;20041;-60
2023/05/23 03:51:38;;;;;;;;;;;12.40;99.90;;;;;;5040782;28;20033;-61
2023/05/23 03:54:04;;;;;;;6.45;4.10;;;12.40;99.90;;;;;;5040959;28;19920;-61
2023/05/23 03:56:30;;;;;;;5.82;4.22;;;12.40;99.90;;;;;;5047086;28;20477;-60
2023/05/23 03:58:55;;;;;;;;;;;12.30;99.90;;;;;;5041466;28;20125;-61
2023/05/23 04:01:21;;;;;;;5.63;3.80;;;12.40;99.90;;;;;;5045866;28;19943;-59
2023/05/23 04:03:46;;;;;;;;;;;12.40;99.90;;;;;;5041509;28;20063;-60
2023/05/23 04:06:12;;;;;;;6.35;3.75;;;12.30;99.90;;;;;;5047511;28;20012;-60
2023/05/23 04:08:40;;;;;;;;;;;12.20;99.90;;;;;;5040620;28;20037;-60
2023/05/23 04:11:06;;;;;;;7.18;3.67;;;12.20;99.90;;;;;;5048079;28;20012;-61
2023/05/23 04:13:32;;;;;;;;;;;12.20;99.90;;;;;;5043824;28;20104;-61
2023/05/23 04:16:00;;;;;;;4.13;3.25;;;12.20;99.90;;;;;;5047313;28;19916;-59
2023/05/23 04:18:27;;;;;;;5.18;3.22;;;12.20;99.90;;;;;;5047543;28;20086;-61
2023/05/23 04:20:53;;;;;;;6.25;3.97;;;12.20;99.90;;;;;;5057689;28;20083;-56
2023/05/23 04:23:18;;;;;;;;;;;12.30;99.90;;;;;;5043991;28;20500;-59
2023/05/23 04:25:44;;;;;;;4.55;3.55;;;12.30;99.90;;;;;;5046541;28;19921;-61
2023/05/23 04:28:11;;;;;;;4.63;3.38;;;12.30;99.90;;;;;;5044084;28;20106;-59
2023/05/23 04:30:37;;;;;;;5.40;3.88;;;12.30;99.90;;;;;;5043120;28;20041;-59
2023/05/23 04:33:02;;;;;;;;;;;12.30;99.90;;;;;;5042273;28;20041;-61
2023/05/23 04:35:28;;;;;;;4.72;3.30;;;12.30;99.90;;;;;;5046825;28;19929;-60
2023/05/23 04:37:55;;;;;;;6.65;3.35;;;12.30;99.90;;;;;;5039371;28;20041;-60
2023/05/23 04:40:24;;;;;;;8.25;5.07;;;12.30;99.90;;;;;;5046177;28;20152;-60
2023/05/23 04:42:53;;;;;;;8.23;5.25;;;12.30;99.90;;;;;;5041661;28;20434;-58
2023/05/23 04:45:18;;;;;;;6.32;4.43;;;12.20;99.90;;;;;;5046220;28;20033;-60
2023/05/23 04:47:44;;;;;;;;;;;12.30;99.90;;;;;;5045253;28;20434;-59
2023/05/23 04:50:10;;;;;;;6.47;4.90;;;12.30;99.90;;;;;;5042335;28;19920;-59
2023/05/23 04:52:36;;;;;;;9.30;6.10;;;12.30;99.90;;;;;;5041680;28;20187;-60
2023/05/23 04:55:02;;;;;;;;;;;12.30;99.90;;;;;;5045536;28;20579;-59
2023/05/23 04:57:28;;;;;;;8.32;4.55;;;12.30;99.90;;;;;;5041225;28;20433;-61
2023/05/23 04:59:53;;;;;;;7.57;5.20;;;12.40;99.90;;;;;;5044348;28;20051;-60
2023/05/23 05:02:19;;;;;;;;;;;12.40;99.90;;;;;;5038050;28;20053;-58
2023/05/23 05:04:44;;;;;;;6.78;4.82;;;12.40;99.90;;;;;;5037792;28;19952;-57
2023/05/23 05:07:10;;;;;;;;;;;12.40;99.90;;;;;;5044413;28;20546;-57
2023/05/23 05:09:35;;;;;;;10.35;6.47;;;12.30;99.90;;;;;;5043918;28;19921;-59
2023/05/23 05:12:01;;;;;;;8.27;6.15;;;12.40;99.90;;;;;;5042308;28;20504;-57
2023/05/23 05:14:27;;;;;;;6.85;5.28;;;12.40;99.90;;;;;;5040963;28;20052;-59
2023/05/23 05:16:56;;;;;;;;;;;12.30;99.90;;;;;;5046601;28;20424;-61
2023/05/23 05:19:22;;;;;;;6.47;4.80;;;12.30;99.90;;;;;;5044201;28;20400;-61
2023/05/23 05:21:48;;;;;;;7.95;4.53;;;12.30;99.90;;;;;;5043337;28;21117;-58
2023/05/23 05:24:14;;;;;;;;;;;12.40;99.90;;;;;;5044009;28;20037;-62
2023/05/23 05:26:40;;;;;;;7.45;4.88;;;12.40;99.90;;;;;;5044685;28;19966;-63
2023/05/23 05:29:06;;;;;;;6.20;4.20;;;12.40;99.90;;;;;;5044951;28;20037;-63
2023/05/23 05:31:32;;;;;;;;;;;12.40;99.90;;;;;;5051437;28;20043;-57
2023/05/23 05:33:58;;;;;;;5.65;4.20;;;12.40;99.90;;;;;;5046233;28;20006;-63
2023/05/23 05:36:23;;;;;;;;;;;12.40;99.90;;;;;;5059923;28;20789;-62
2023/05/23 05:38:50;;;;;;;4.78;3.60;;;12.50;99.90;;;;;;5045676;28;19916;-61
2023/05/23 05:41:15;;;;;;;5.20;3.80;;;12.50;99.90;;;;;;5041668;28;20040;-56
2023/05/23 05:43:41;;;;;;;;;;;12.50;99.90;;;;;;5042551;28;20083;-62
2023/05/23 05:46:06;;;;;;;4.47;3.50;;;12.50;99.90;;;;;;5043172;28;20449;-62
2023/05/23 05:48:32;;;;;;;4.88;3.35;;;12.50;99.90;;;;;;5036884;28;20038;-63
2023/05/23 05:50:59;;;;;;;;;;;12.50;99.90;;;;;;5039560;28;20041;-62
2023/05/23 05:53:25;;;;;;;7.47;3.40;;;12.50;99.90;;;;;;5038616;28;20426;-62
2023/05/23 05:55:52;;;;;;;;;;;12.50;99.90;;;;;;5043485;28;20041;-61
2023/05/23 05:58:18;;;;;;;5.05;3.08;;;12.50;99.90;;;;;;5044029;28;19921;-58
2023/05/23 06:00:44;;;;;;;;;;;12.50;99.90;;;;;;5044125;28;20037;-61
2023/05/23 06:03:10;;;;;;;4.50;3.15;;;12.50;99.90;;;;;;5038524;28;20086;-61
2023/05/23 06:05:36;;;;;;;5.03;3.55;;;12.50;99.90;;;;;;5044385;28;20110;-62
2023/05/23 06:08:02;;;;;;;;;;;12.60;99.90;;;;;;5043427;28;20508;-59
2023/05/23 06:10:28;;;;;;;6.88;4.97;;;12.60;99.90;;;;;;5041637;28;19927;-59
2023/05/23 06:12:54;;;;;;;;;;;12.60;99.90;;;;;;5038867;28;20119;-57
2023/05/23 06:15:19;;;;;;;8.65;4.57;;;12.60;99.90;;;;;;5044580;28;19920;-60
2023/05/23 06:17:45;;;;;;;9.27;4.55;;;12.60;99.90;;;;;;5038954;28;20041;-58
2023/05/23 06:20:12;;;;;;;9.20;6.38;;;12.60;99.90;;;;;;5043988;28;20781;-61
2023/05/23 06:22:38;;;;;;;8.15;5.85;;;12.60;99.90;;;;;;5036805;28;20047;-62
2023/05/23 06:25:03;;;;;;;;;;;12.60;99.90;;;;;;5043818;28;20495;-59
2023/05/23 06:27:29;;;;;;;12.98;7.15;;;12.60;99.90;;;;;;5041833;28;19971;-60
2023/05/23 06:29:55;;;;;;;14.40;7.28;;;12.50;99.90;;;;;;5044297;28;20478;-59
2023/05/23 06:32:20;;;;;;;;;;;12.50;99.90;;;;;;5035435;28;20492;-61
2023/05/23 06:34:46;;;;;;;14.30;7.95;;;12.40;99.90;;;;;;5037187;28;19920;-58
2023/05/23 06:37:11;;;;;;;13.18;8.90;;;12.40;99.90;;;;;;5042890;28;20064;-63
2023/05/23 06:39:37;;;;;;;;;;;12.40;99.90;;;;;;5046788;28;20555;-61
2023/05/23 06:42:03;;;;;;;13.32;8.38;;;12.40;99.90;;;;;;5045685;28;19928;-59
2023/05/23 06:44:28;;;;;;;;;;;12.40;99.90;;;;;;5043086;28;20076;-60
2023/05/23 06:46:56;;;;;;;11.93;8.02;;;12.40;99.90;;;;;;5038106;28;19951;-60
2023/05/23 06:49:22;;;;;;;14.70;9.82;;;12.40;99.90;;;;;;5043147;28;20052;-59
2023/05/23 06:51:48;;;;;;;11.13;7.82;;;12.40;99.90;;;;;;5041284;28;20044;-61
2023/05/23 06:54:14;;;;;;;;;;;12.40;99.90;;;;;;5038838;28;20029;-58
2023/05/23 06:56:39;;;;;;;11.63;7.45;;;12.40;99.90;;;;;;5041885;28;19944;-59
2023/05/23 06:59:05;;;;;;;;;;;12.40;99.90;;;;;;5044305;28;20033;-60
2023/05/23 07:01:31;;;;;;;11.02;7.45;;;12.40;99.90;;;;;;5037126;28;19975;-60
2023/05/23 07:03:56;;;;;;;;;;;12.50;99.90;;;;;;5035658;28;20048;-59
2023/05/23 07:06:22;;;;;;;9.93;6.43;;;12.50;99.90;;;;;;5036256;28;20395;-59
2023/05/23 07:08:47;;;;;;;;;;;12.50;99.90;;;;;;5042227;28;20480;-59
2023/05/23 07:11:13;;;;;;;9.98;5.95;;;12.50;99.90;;;;;;5035427;28;19952;-60
2023/05/23 07:13:39;;;;;;;;;;;12.60;99.90;;;;;;5038208;28;20111;-61
2023/05/23 07:16:05;;;;;;;8.90;4.80;;;12.60;99.90;;;;;;5038245;28;20043;-60
2023/05/23 07:18:30;;;;;;;;;;;12.60;99.90;;;;;;5038519;28;20100;-56
2023/05/23 07:20:56;;;;;;;6.70;4.28;;;12.50;99.90;;;;;;5034410;28;19917;-61
2023/05/23 07:23:25;;;;;;;7.65;4.72;;;12.60;99.90;;;;;;5034271;28;20494;-57
2023/05/23 07:25:50;;;;;;;6.95;4.40;;;12.60;99.90;;;;;;5036342;28;20124;-61
2023/05/23 07:28:16;;;;;;;;;;;12.50;99.90;;;;;;5039691;28;20452;-60
2023/05/23 07:30:41;;;;;;;8.63;5.22;;;12.50;99.90;;;;;;5036720;28;20931;-61
2023/05/23 07:33:07;;;;;;;;;;;12.40;99.90;;;;;;5039210;28;20436;-60
2023/05/23 07:35:32;;;;;;;5.35;3.97;;;12.40;99.90;;;;;;5041776;28;19921;-59
2023/05/23 07:37:58;;;;;;;;;;;12.40;99.90;;;;;;5040699;28;20094;-58
2023/05/23 07:40:24;;;;;;;6.28;3.05;;;12.40;99.90;;;;;;5040548;28;19928;-59
2023/05/23 07:42:49;;;;;;;;;;;12.40;99.90;;;;;;5041226;28;20036;-59
2023/05/23 07:45:15;;;;;;;3.17;2.60;;;12.40;99.90;;;;;;5044502;28;19972;-60
2023/05/23 07:47:41;;;;;;;;;;;12.50;99.90;;;;;;5039990;28;20072;-60
2023/05/23 07:50:07;;;;;;;2.70;2.15;;;12.60;99.90;;;;;;5045905;28;20021;-59
2023/05/23 07:52:32;;;;;;;3.35;2.35;;;12.60;99.90;;;;;;5032042;28;20036;-58
2023/05/23 07:54:58;;;;;;;;;;;12.60;99.90;;;;;;5044730;28;20036;-60
2023/05/23 07:57:24;;;;;;;3.25;2.30;;;12.60;99.90;;;;;;5046373;28;19924;-60
2023/05/23 07:59:51;;;;;;;11.02;4.97;;;12.60;99.90;;;;;;5045693;28;20040;-60
2023/05/23 08:02:17;;;;;;;12.57;5.75;;;12.50;99.90;;;;;;5046736;28;20180;-59
2023/05/23 08:04:44;;;;;;;;;;;12.40;99.90;;;;;;5045102;28;20100;-59
2023/05/23 08:07:10;;;;;;;11.00;6.20;;;12.50;99.90;;;;;;5046368;28;20403;-58
2023/05/23 08:09:36;;;;;;;12.63;7.63;;;12.40;99.90;;;;;;5042995;28;20049;-60
2023/05/23 08:12:02;;;;;;;10.98;7.55;;;12.40;99.90;;;;;;5042296;28;20041;-59
2023/05/23 08:14:28;;;;;;;;;;;12.40;99.90;;;;;;5041302;28;20051;-60
2023/05/23 08:16:54;;;;;;;13.98;8.98;;;12.30;99.90;;;;;;5045759;28;19925;-60
2023/05/23 08:19:19;;;;;;;;;;;12.30;99.90;;;;;;5043756;28;20049;-59
2023/05/23 08:21:46;;;;;;;14.15;7.70;;;12.20;99.90;;;;;;5042028;28;20299;-59
2023/05/23 08:24:11;;;;;;;16.95;8.00;;;12.10;99.90;;;;;;5041196;28;20106;-60
2023/05/23 08:26:37;;;;;;;;;;;12.00;99.90;;;;;;5037960;28;20045;-61
2023/05/23 08:29:03;;;;;;;11.98;7.15;;;12.00;99.90;;;;;;5049079;28;19916;-61
2023/05/23 08:31:29;;;;;;;;;;;11.90;99.90;;;;;;5054297;28;20098;-60
2023/05/23 08:33:54;;;;;;;8.05;5.22;;;11.90;99.90;;;;;;5036576;28;20024;-59
2023/05/23 08:36:20;;;;;;;;;;;12.00;99.90;;;;;;5046584;28;20052;-60
2023/05/23 08:38:46;;;;;;;8.45;4.47;;;12.00;99.90;;;;;;5041878;28;19920;-60
2023/05/23 08:41:20;;;;;;;6.05;4.45;;;12.00;99.90;;;;;;5038168;28;20061;-60
2023/05/23 08:43:46;;;;;;;5.18;3.90;;;12.10;99.90;;;;;;5045010;28;20041;-60
2023/05/23 08:46:12;;;;;;;;;;;12.00;99.90;;;;;;5064545;28;20041;-60
2023/05/23 08:48:38;;;;;;;13.25;3.40;;;12.00;99.90;;;;;;5047966;28;19920;-58
2023/05/23 08:51:08;;;;;;;6.65;2.90;;;12.00;99.90;;;;;;5044300;28;20052;-61
2023/05/23 08:53:37;;;;;;;8.25;2.53;;;12.00;99.90;;;;;;5044955;28;20591;-61
2023/05/23 08:56:03;;;;;;;5.43;2.50;;;11.90;99.90;;;;;;5046490;28;20435;-59
2023/05/23 08:58:30;;;;;;;;;;;11.90;99.90;;;;;;5043398;28;20132;-61
2023/05/23 09:00:58;;;;;;;6.15;3.10;;;11.70;99.90;;;;;;5044197;28;19920;-59
2023/05/23 09:03:25;;;;;;;6.00;2.78;;;11.60;99.90;;;;;;5039472;28;20052;-59
2023/05/23 09:05:53;;;;;;;6.93;2.55;;;11.60;99.90;;;;;;5044330;28;20190;-59
2023/05/23 09:08:19;;;;;;;6.05;2.55;;;11.70;99.90;;;;;;5051440;28;20126;-59
2023/05/23 09:10:48;;;;;;;2.28;2.00;;;11.70;99.90;;;;;;5053819;28;20043;-61
2023/05/23 09:13:16;;;;;;;2.30;1.88;;;11.70;99.90;;;;;;5035081;28;20065;-61
2023/05/23 09:16:00;;;;;;;3.08;1.98;;;11.70;99.90;;;;;;5042580;28;20045;-58
2023/05/23 09:18:27;;;;;;;2.38;1.73;;;11.60;99.90;;;;;;5045474;28;20503;-60
2023/05/23 09:20:52;;;;;;;5.40;3.03;;;11.60;99.90;;;;;;5045923;28;20531;-57
2023/05/23 09:23:18;;;;;;;;;;;11.60;99.90;;;;;;5045856;28;20028;-58
2023/05/23 09:25:48;;;;;;;3.17;2.20;;;11.40;99.90;;;;;;5047338;28;19932;-61
2023/05/23 09:28:13;;;;;;;3.20;2.08;;;11.40;99.90;;;;;;5044128;28;20044;-57
2023/05/23 09:30:39;;;;;;;;;;;11.50;99.90;;;;;;5047328;28;20040;-59
2023/05/23 09:33:05;;;;;;;2.65;2.10;;;11.60;99.90;;;;;;5063489;28;19916;-59
2023/05/23 09:35:31;;;;;;;2.80;2.05;;;11.60;99.90;;;;;;5058218;28;20056;-58
2023/05/23 09:38:00;;;;;;;;;;;11.60;99.90;;;;;;5047092;28;20064;-58
2023/05/23 09:40:32;;;;;;;3.55;2.50;;;11.60;99.90;;;;;;5042165;28;19917;-60
2023/05/23 09:43:04;;;;;;;2.42;1.70;;;11.60;99.90;;;;;;5048121;28;20046;-59
2023/05/23 09:45:31;;;;;;;3.10;2.45;;;11.60;99.90;;;;;;5056585;28;20631;-57
2023/05/23 09:47:56;;;;;;;3.75;2.67;;;11.50;99.90;;;;;;5036731;28;20040;-60
2023/05/23 09:50:22;;;;;;;;;;;11.50;99.90;;;;;;5055244;28;20559;-60
2023/05/23 09:52:49;;;;;;;4.72;3.08;;;11.40;99.90;;;;;;5043295;28;19916;-58
2023/05/23 09:55:15;;;;;;;4.55;3.05;;;11.40;99.90;;;;;;5040388;28;20049;-59
2023/05/23 09:57:43;;;;;;;3.95;2.67;;;11.50;99.90;;;;;;5041266;28;20139;-60
2023/05/23 10:00:12;;;;;;;3.22;2.53;;;11.40;99.90;;;;;;5045017;28;20346;-62
2023/05/23 10:03:11;;;;;;;3.35;2.35;;;11.50;99.90;;;;;;5020992;28;20699;-60
2023/05/23 10:05:46;;;;;;;4.57;2.35;;;11.60;99.90;;;;;;5023660;28;20041;-59
2023/05/23 10:08:35;;;;;;;3.42;2.30;;;11.60;99.90;;;;;;5023457;28;20037;-61
2023/05/23 10:11:12;;;;;;;2.65;2.10;;;11.50;99.90;;;;;;5016183;28;20037;-61
2023/05/23 10:13:52;;;;;;;4.50;1.92;;;11.50;99.90;;;;;;5022266;28;20547;-54
2023/05/23 10:16:19;;;;;;;5.35;3.00;;;11.50;99.90;;;;;;5024684;28;20037;-60
2023/05/23 10:18:51;;;;;;;4.03;3.05;;;11.50;99.90;;;;;;5022246;28;20095;-58
2023/05/23 10:21:28;;;;;;;4.75;3.65;;;11.40;99.90;;;;;;5023104;28;20049;-60
2023/05/23 10:23:54;;;;;;;3.28;2.55;;;11.40;99.90;;;;;;5018605;28;20125;-60
2023/05/23 10:26:20;;;;;;;4.40;2.90;;;11.30;99.90;;;;;;5020980;28;20053;-59
2023/05/23 10:28:48;;;;;;;;;;;11.40;99.90;;;;;;5023427;28;20043;-60
2023/05/23 10:31:14;;;;;;;4.13;2.92;;;11.40;99.90;;;;;;5022040;28;19921;-59
2023/05/23 10:33:47;;;;;;;4.35;3.40;;;11.20;99.90;;;;;;5018733;28;20102;-61
2023/05/23 10:36:32;;;;;;;10.82;3.97;;;11.10;99.90;;;;;;5025683;28;20048;-60
2023/05/23 10:39:04;;;;;;;7.20;3.80;;;11.10;99.90;;;;;;5023188;28;20037;-58
2023/05/23 10:41:42;;;;;;;8.65;3.30;;;11.10;99.90;;;;;;5023000;28;20041;-58
2023/05/23 10:44:25;;;;;;;7.57;4.00;;;11.10;99.90;;;;;;5021107;28;20091;-60
2023/05/23 10:47:02;;;;;;;5.13;3.42;;;11.00;99.90;;;;;;5023451;28;20052;-59
2023/05/23 10:49:42;;;;;;;5.65;3.80;;;11.00;99.90;;;;;;5023480;28;20037;-60
2023/05/23 10:52:11;;;;;;;8.63;4.53;;;11.10;99.90;;;;;;5023880;28;20041;-60
2023/05/23 10:54:51;;;;;;;7.55;3.60;;;11.00;99.90;;;;;;5023207;28;20049;-60
2023/05/23 10:57:19;;;;;;;6.70;2.63;;;11.10;99.90;;;;;;5023016;28;20426;-60
2023/05/23 10:59:46;;;;;;;6.82;2.30;;;11.00;99.90;;;;;;5021534;28;20465;-57
2023/05/23 11:02:16;;;;;;;5.80;3.15;;;11.10;99.90;;;;;;5020713;28;20136;-61
2023/05/23 11:04:43;;;;;;;5.05;3.33;;;11.10;99.90;;;;;;5024269;28;20444;-60
2023/05/23 11:08:13;;;;;;;8.27;4.53;;;11.20;99.90;;;;;;5023743;28;20068;-61
2023/05/23 11:11:00;;;;;;;11.52;4.50;;;11.20;99.90;;;;;;4957761;28;20047;-56
2023/05/23 11:13:56;;;;;;;6.53;3.63;;;11.20;99.90;;;;;;4960524;28;20042;-59
2023/05/23 11:16:38;;;;;;;5.82;3.80;;;11.20;99.90;;;;;;5020815;28;20062;-60
2023/05/23 11:19:19;;;;;;;5.47;3.83;;;11.10;99.90;;;;;;5020070;28;20153;-58
2023/05/23 11:21:51;;;;;;;15.88;4.90;;;11.10;99.90;;;;;;5021719;28;20055;-58
2023/05/23 11:24:17;;;;;;;12.98;3.45;;;11.10;99.90;;;;;;5021844;28;20041;-58
2023/05/23 11:26:59;;;;;;;;;;;11.20;99.90;;;;;;5022470;28;20049;-59
2023/05/23 11:29:30;;;;;;;6.03;4.32;;;11.10;99.90;;;;;;5022439;28;19943;-53
2023/05/23 11:31:56;;;;;;;8.60;4.93;;;11.10;99.90;;;;;;5020545;28;20045;-60
2023/05/23 11:34:24;;;;;;;;;;;11.10;99.90;;;;;;5020707;28;20052;-56
2023/05/23 11:36:55;;;;;;;8.93;4.10;;;11.00;99.90;;;;;;5024247;28;19999;-60
2023/05/23 11:39:22;;;;;;;6.25;4.28;;;11.10;99.90;;;;;;5023529;28;20040;-62
2023/05/23 11:42:03;;;;;;;9.80;4.65;;;11.20;99.90;;;;;;5021555;28;20049;-62
2023/05/23 11:44:29;;;;;;;7.25;4.70;;;11.20;99.90;;;;;;5021199;28;20076;-59
2023/05/23 11:47:01;;;;;;;;;;;11.20;99.90;;;;;;5021838;28;20045;-56
2023/05/23 11:49:28;;;;;;;10.65;5.63;;;11.10;99.90;;;;;;5022996;28;19940;-61
2023/05/23 11:51:54;;;;;;;11.27;5.93;;;10.90;99.90;;;;;;5021350;28;20128;-59
2023/05/23 11:54:24;;;;;;;;;;;10.90;99.90;;;;;;5022329;28;20568;-58
2023/05/23 11:56:50;;;;;;;11.70;6.13;;;10.90;99.90;;;;;;5022454;28;19917;-59
2023/05/23 11:59:16;;;;;;;;;;;10.80;99.90;;;;;;5022852;28;20472;-58
2023/05/23 12:01:42;;;;;;;9.70;5.80;;;10.60;99.90;;;;;;5020664;28;20289;-63
2023/05/23 12:04:13;;;;;;;11.27;6.93;;;10.50;99.90;;;;;;5018967;28;20128;-62
2023/05/23 12:06:40;;;;;;;16.35;8.18;;;10.50;99.90;;;;;;5019501;28;20041;-58
2023/05/23 12:09:07;;;;;;;11.45;6.47;;;10.60;99.90;;;;;;5020513;28;20408;-62
2023/05/23 12:11:34;;;;;;;10.70;6.47;;;10.60;99.90;;;;;;5022166;28;20511;-60
2023/05/23 12:14:01;;;;;;;13.43;6.40;;;10.70;99.90;;;;;;5019350;28;20041;-61
2023/05/23 12:16:30;;;;;;;10.02;6.10;;;10.70;99.90;;;;;;5026855;28;20042;-60
2023/05/23 12:18:57;;;;;;;13.55;6.78;;;10.80;99.90;;;;;;5025520;28;20481;-62
2023/05/23 12:21:39;;;;;;;9.15;6.00;;;10.80;99.90;;;;;;5026035;28;20555;-61
2023/05/23 12:24:18;;;;;;;12.90;6.32;;;10.70;99.90;;;;;;5021729;28;20049;-61
2023/05/23 12:26:46;;;;;;;10.05;6.05;;;10.80;99.90;;;;;;5026730;28;20103;-61
2023/05/23 12:29:12;;;;;;;7.95;5.15;;;10.70;99.90;;;;;;5025309;28;20030;-62
2023/05/23 12:31:38;;;;;;;;;;;10.70;99.90;;;;;;5027675;28;20040;-61
2023/05/23 12:34:03;;;;;;;6.20;3.90;;;10.70;99.90;;;;;;5028299;28;19921;-61
2023/05/23 12:36:31;;;;;;;;;;;10.70;99.90;;;;;;5028233;28;20111;-61
2023/05/23 12:39:04;;;;;;;8.60;5.00;;;10.70;99.90;;;;;;5025232;28;19917;-60
2023/05/23 12:41:32;;;;;;;15.45;6.60;;;10.70;99.90;;;;;;5025660;28;20056;-60
2023/05/23 12:43:58;;;;;;;15.23;6.50;;;10.70;99.90;;;;;;5024462;28;20334;-62
2023/05/23 12:46:25;;;;;;;12.27;6.68;;;10.70;99.90;;;;;;5026433;28;20131;-60
2023/05/23 12:48:51;;;;;;;10.75;7.68;;;10.90;99.90;;;;;;5023179;28;20041;-59
2023/05/23 12:51:18;;;;;;;18.40;6.72;;;10.90;99.90;;;;;;5025949;28;20045;-60
2023/05/23 12:53:43;;;;;;;15.57;6.10;;;11.20;99.90;;;;;;5024042;28;20038;-60
2023/05/23 12:56:09;;;;;;;;;;;11.30;99.90;;;;;;5026961;28;20052;-60
2023/05/23 12:58:34;;;;;;;18.33;7.35;;;11.20;99.90;;;;;;5024068;28;19925;-58
2023/05/23 13:01:01;;;;;;;;;;;11.20;99.90;;;;;;5024013;28;20106;-59
2023/05/23 13:03:28;;;;;;;15.45;6.40;;;11.10;99.90;;;;;;5023439;28;19931;-60
2023/05/23 13:05:54;;;;;;;11.90;6.28;;;11.00;99.90;;;;;;5024853;28;20052;-61
2023/05/23 13:08:20;;;;;;;;;;;11.00;99.90;;;;;;5025925;28;20034;-58